Time;durP1;ratioP1;P1;durP2;ratioP2;P2;SDS_P1;SDS_P2;PMS_P1;PMS_P2;Temp;Humidity;BMP_temperature;BMP_pressure;BME280_temperature;BME280_humidity;BME280_pressure;Samples;Min_cycle;Max_cycle;Signal;HPM_P1;HPM_P2
2023/02/16 00:00:20;;;;;;;0.60;0.60;;;;;;;4.36;66.74;97840.91;29395;304;63009;-58
2023/02/16 00:00:54;;;;;;;0.60;0.60;;;;;;;4.34;66.97;97843.00;29395;246;63014;-57
2023/02/16 00:01:30;;;;;;;0.50;0.50;;;;;;;4.32;67.34;97843.22;29395;295;63011;-57
2023/02/16 00:02:01;;;;;;;0.50;0.50;;;;;;;4.32;67.47;97845.09;29395;235;63015;-56
2023/02/16 00:02:32;;;;;;;0.60;0.60;;;;;;;4.31;67.82;97840.78;29395;254;63009;-58
2023/02/16 00:03:03;;;;;;;0.50;0.50;;;;;;;4.30;67.61;97844.50;29395;252;63004;-57
2023/02/16 00:03:35;;;;;;;0.60;0.60;;;;;;;4.30;67.74;97839.13;29395;217;63009;-57
2023/02/16 00:04:23;;;;;;;0.50;0.50;;;;;;;4.29;67.71;97841.00;29395;241;63004;-57
2023/02/16 00:04:54;;;;;;;0.50;0.50;;;;;;;4.29;67.70;97845.56;29394;235;64014;-57
2023/02/16 00:05:31;;;;;;;0.60;0.60;;;;;;;4.29;67.98;97840.19;29395;197;63007;-57
2023/02/16 00:06:02;;;;;;;0.60;0.60;;;;;;;4.29;67.74;97834.81;29395;235;63005;-59
2023/02/16 00:06:34;;;;;;;0.60;0.60;;;;;;;4.28;67.93;97849.28;29394;234;64009;-57
2023/02/16 00:07:05;;;;;;;0.60;0.60;;;;;;;4.28;68.05;97850.09;29395;218;63017;-58
2023/02/16 00:07:36;;;;;;;0.60;0.60;;;;;;;4.27;67.52;97848.47;29395;195;63005;-57
2023/02/16 00:08:07;;;;;;;0.60;0.60;;;;;;;4.26;67.64;97846.00;29395;297;63008;-57
2023/02/16 00:08:43;;;;;;;0.50;0.50;;;;;;;4.26;67.61;97852.19;29395;197;63005;-57
2023/02/16 00:09:15;;;;;;;0.60;0.60;;;;;;;4.26;67.88;97848.69;29395;226;63009;-58
2023/02/16 00:09:46;;;;;;;0.50;0.50;;;;;;;4.25;68.08;97844.37;29395;309;63007;-57
2023/02/16 00:10:18;;;;;;;0.50;0.50;;;;;;;4.24;68.03;97848.91;29395;229;63009;-58
2023/02/16 00:13:44;;;;;;;0.60;0.60;;;;;;;4.18;68.38;97847.16;29395;225;63019;-58
2023/02/16 00:14:16;;;;;;;0.60;0.60;;;;;;;4.17;68.18;97855.44;29395;204;63005;-57
2023/02/16 00:14:47;;;;;;;0.60;0.60;;;;;;;4.15;68.36;97846.81;29395;292;63009;-57
2023/02/16 00:15:20;;;;;;;0.60;0.60;;;;;;;4.13;68.32;97846.22;29395;305;63008;-58
2023/02/16 00:15:51;;;;;;;0.50;0.50;;;;;;;4.13;68.82;97851.59;29395;198;63015;-58
2023/02/16 00:16:24;;;;;;;0.50;0.50;;;;;;;4.12;68.69;97845.41;29394;276;63998;-57
2023/02/16 00:16:57;;;;;;;0.60;0.60;;;;;;;4.11;68.43;97842.94;29395;230;63009;-58
2023/02/16 00:17:28;;;;;;;0.60;0.60;;;;;;;4.11;68.27;97849.13;29395;245;63018;-58
2023/02/16 00:18:03;;;;;;;0.60;0.60;;;;;;;4.10;68.68;97849.34;29395;233;63009;-58
2023/02/16 00:18:34;;;;;;;0.60;0.60;;;;;;;4.10;68.20;97847.50;29395;211;63004;-58
2023/02/16 00:19:22;;;;;;;0.60;0.60;;;;;;;4.07;68.47;97847.12;29395;228;63008;-58
2023/02/16 00:20:09;;;;;;;0.57;0.57;;;;;;;4.06;68.25;97849.00;29395;227;63005;-58
2023/02/16 00:20:40;;;;;;;0.60;0.60;;;;;;;4.06;68.58;97850.84;29395;214;63009;-58
2023/02/16 00:21:13;;;;;;;0.50;0.50;;;;;;;4.05;68.70;97852.72;29395;232;63005;-58
2023/02/16 00:21:45;;;;;;;0.50;0.50;;;;;;;4.04;68.70;97849.22;29394;220;64013;-57
2023/02/16 00:22:16;;;;;;;0.50;0.50;;;;;;;4.03;68.58;97847.56;29395;325;63005;-58
2023/02/16 00:22:47;;;;;;;0.50;0.50;;;;;;;4.03;68.53;97844.87;29394;219;64013;-57
2023/02/16 00:23:19;;;;;;;0.60;0.60;;;;;;;4.02;68.54;97854.00;29395;212;63005;-56
2023/02/16 00:23:51;;;;;;;0.50;0.50;;;;;;;4.02;68.69;97850.50;29395;223;63009;-56
2023/02/16 00:24:25;;;;;;;0.50;0.50;;;;;;;4.00;68.34;97850.72;29395;220;63000;-56
2023/02/16 00:24:57;;;;;;;0.60;0.60;;;;;;;3.98;68.64;97850.13;29395;217;63009;-57
2023/02/16 00:25:29;;;;;;;0.60;0.60;;;;;;;3.96;68.87;97852.22;29395;235;63004;-58
2023/02/16 00:26:00;;;;;;;0.60;0.60;;;;;;;3.93;68.98;97852.66;29395;220;63009;-58
2023/02/16 00:26:34;;;;;;;0.60;0.60;;;;;;;3.92;68.73;97851.03;29395;210;63004;-58
2023/02/16 00:27:14;;;;;;;0.60;0.60;;;;;;;3.90;69.40;97847.75;29395;202;63008;-58
2023/02/16 00:27:45;;;;;;;0.70;0.70;;;;;;;3.89;69.23;97853.34;29416;222;64009;-58
2023/02/16 00:28:19;;;;;;;0.60;0.60;;;;;;;3.86;69.37;97856.47;29395;236;63009;-58
2023/02/16 00:28:59;;;;;;;0.60;0.60;;;;;;;3.81;69.59;97854.47;29395;243;63005;-56
2023/02/16 00:29:33;;;;;;;0.60;0.60;;;;;;;3.76;69.35;97866.94;29394;273;64013;-57
2023/02/16 00:30:18;;;;;;;0.60;0.60;;;;;;;3.71;69.76;97870.31;29395;196;63005;-57
2023/02/16 00:30:50;;;;;;;0.60;0.60;;;;;;;3.67;69.97;97863.75;29395;218;63009;-59
2023/02/16 00:31:27;;;;;;;0.50;0.50;;;;;;;3.64;70.03;97864.19;29395;347;63005;-58
2023/02/16 00:32:00;;;;;;;0.75;0.75;;;;;;;3.62;70.05;97868.97;29395;203;63009;-57
2023/02/16 00:32:32;;;;;;;0.50;0.50;;;;;;;3.58;69.58;97859.72;29395;328;63004;-57
2023/02/16 00:33:18;;;;;;;0.60;0.60;;;;;;;3.54;70.13;97869.25;29395;196;63019;-56
2023/02/16 00:33:50;;;;;;;0.60;0.60;;;;;;;3.49;70.26;97861.88;29395;221;63004;-56
2023/02/16 00:34:39;;;;;;;0.60;0.60;;;;;;;3.46;70.48;97866.91;29395;232;63008;-58
2023/02/16 00:35:16;;;;;;;0.52;0.52;;;;;;;3.43;70.48;97867.34;29394;238;64009;-57
2023/02/16 00:35:48;;;;;;;0.60;0.60;;;;;;;3.40;70.63;97863.25;29395;213;63013;-58
2023/02/16 00:36:20;;;;;;;0.60;0.60;;;;;;;3.39;70.43;97863.47;29395;209;63005;-57
2023/02/16 00:36:52;;;;;;;0.60;0.60;;;;;;;3.37;70.64;97869.88;29395;210;63009;-57
2023/02/16 00:37:26;;;;;;;0.60;0.60;;;;;;;3.34;70.32;97867.63;29395;245;63005;-56
2023/02/16 00:37:57;;;;;;;0.57;0.57;;;;;;;3.32;70.50;97872.41;29395;240;63009;-56
2023/02/16 00:38:28;;;;;;;0.60;0.60;;;;;;;3.29;70.59;97867.47;29394;202;64009;-57
2023/02/16 00:39:00;;;;;;;0.50;0.50;;;;;;;3.27;70.52;97872.25;29395;224;63009;-57
2023/02/16 00:39:32;;;;;;;0.60;0.60;;;;;;;3.26;70.39;97873.28;29395;212;63007;-68
2023/02/16 00:40:04;;;;;;;0.60;0.60;;;;;;;3.23;70.75;97872.91;29394;199;64009;-57
2023/02/16 00:40:36;;;;;;;0.57;0.57;;;;;;;3.20;70.96;97873.34;29395;297;63000;-57
2023/02/16 00:42:30;;;;;;;0.60;0.60;;;;;;;3.12;71.03;97871.75;29395;205;63004;-56
2023/02/16 00:43:01;;;;;;;0.60;0.60;;;;;;;3.11;70.90;97872.00;29395;252;63024;-58
2023/02/16 00:43:34;;;;;;;0.50;0.50;;;;;;;3.09;71.33;97874.09;29394;225;64009;-57
2023/02/16 00:44:16;;;;;;;0.60;0.60;;;;;;;3.07;71.28;97877.00;29394;208;64014;-56
2023/02/16 00:44:51;;;;;;;0.60;0.60;;;;;;;3.05;70.89;97875.56;29394;242;64005;-57
2023/02/16 00:45:26;;;;;;;0.60;0.60;;;;;;;3.00;71.21;97878.91;29395;213;63009;-57
2023/02/16 00:45:58;;;;;;;0.60;0.60;;;;;;;2.89;71.37;97879.63;29395;214;63004;-58
2023/02/16 00:46:29;;;;;;;0.60;0.60;;;;;;;2.84;71.93;97876.78;29395;212;63009;-57
2023/02/16 00:47:19;;;;;;;0.60;0.60;;;;;;;2.83;71.61;97877.81;29395;259;63009;-57
2023/02/16 00:47:53;;;;;;;0.60;0.60;;;;;;;2.84;72.13;97890.16;29395;283;63009;-57
2023/02/16 00:48:24;;;;;;;0.60;0.60;;;;;;;2.83;71.82;97881.31;29394;213;64008;-57
2023/02/16 00:48:55;;;;;;;0.60;0.60;;;;;;;2.84;72.16;97879.44;29395;210;63008;-56
2023/02/16 00:49:28;;;;;;;0.60;0.60;;;;;;;2.81;71.79;97871.84;29394;213;64008;-71
2023/02/16 00:49:59;;;;;;;0.60;0.60;;;;;;;2.81;71.96;97869.16;29395;299;63008;-58
2023/02/16 00:50:33;;;;;;;0.60;0.60;;;;;;;2.81;71.71;97875.34;29395;320;63005;-57
2023/02/16 00:51:05;;;;;;;0.60;0.60;;;;;;;2.82;72.01;97876.16;29395;298;63027;-57
2023/02/16 00:51:36;;;;;;;0.60;0.60;;;;;;;2.81;72.08;97877.22;29395;288;63005;-58
2023/02/16 00:52:48;;;;;;;0.60;0.60;;;;;;;2.80;72.04;97867.53;29395;375;63009;-58
2023/02/16 00:53:19;;;;;;;4.50;4.32;;;;;;;2.82;72.29;97878.84;29417;324;63017;-57
2023/02/16 00:53:50;;;;;;;0.60;0.60;;;;;;;2.82;72.10;97871.62;29395;220;63013;-57
2023/02/16 00:54:22;;;;;;;0.60;0.60;;;;;;;2.83;72.44;97872.44;29395;246;63004;-57
2023/02/16 00:54:54;;;;;;;0.60;0.60;;;;;;;2.82;72.33;97870.81;29394;202;64013;-56
2023/02/16 00:55:34;;;;;;;0.60;0.60;;;;;;;2.81;72.08;97875.34;29395;240;63004;-72
2023/02/16 00:56:12;;;;;;;0.50;0.50;;;;;;;2.82;72.36;97870.81;29417;261;63008;-57
2023/02/16 00:56:45;;;;;;;0.60;0.60;;;;;;;2.82;72.54;97871.62;29395;221;63004;-57
2023/02/16 00:57:18;;;;;;;0.57;0.57;;;;;;;2.85;72.65;97873.06;29395;211;63024;-58
2023/02/16 00:58:01;;;;;;;0.60;0.60;;;;;;;2.85;72.36;97873.87;29395;203;63005;-57
2023/02/16 00:58:34;;;;;;;0.60;0.60;;;;;;;2.85;72.50;97878.41;29394;218;64013;-58
2023/02/16 00:59:11;;;;;;;0.60;0.60;;;;;;;2.81;72.29;97867.31;29395;205;63012;-58
2023/02/16 00:59:42;;;;;;;0.60;0.60;;;;;;;2.86;72.23;97866.66;29395;203;63005;-58
2023/02/16 01:00:33;;;;;;;0.60;0.60;;;;;;;2.88;72.68;97872.63;29395;205;63005;-58
2023/02/16 01:01:13;;;;;;;0.60;0.60;;;;;;;2.89;72.52;97876.94;29417;215;63004;-57
2023/02/16 01:01:45;;;;;;;0.50;0.50;;;;;;;2.88;72.53;97869.94;29395;227;63004;-57
2023/02/16 01:02:17;;;;;;;0.60;0.60;;;;;;;2.87;72.32;97869.13;29395;315;63009;-57
2023/02/16 01:02:51;;;;;;;0.50;0.50;;;;;;;2.87;72.48;97865.63;29395;208;63004;-57
2023/02/16 01:03:27;;;;;;;0.60;0.60;;;;;;;2.89;72.62;97871.56;29395;210;63009;-57
2023/02/16 01:04:02;;;;;;;0.60;0.60;;;;;;;2.92;72.82;97871.12;29394;210;64008;-57
2023/02/16 01:04:33;;;;;;;0.60;0.60;;;;;;;2.94;72.65;97863.69;29395;288;63009;-58
2023/02/16 01:05:07;;;;;;;0.60;0.60;;;;;;;2.95;72.30;97859.97;29395;208;63005;-58
2023/02/16 01:05:38;;;;;;;0.60;0.60;;;;;;;2.96;72.18;97859.75;29395;333;63009;-57
2023/02/16 01:11:11;;;;;;;0.60;0.60;;;;;;;3.16;70.88;97861.41;29373;226;63008;-57
2023/02/16 01:11:46;;;;;;;0.60;0.60;;;;;;;3.15;70.71;97857.91;29395;222;63008;-57
2023/02/16 01:12:19;;;;;;;0.60;0.60;;;;;;;3.14;70.81;97864.31;29395;215;63005;-58
2023/02/16 01:12:51;;;;;;;0.60;0.60;;;;;;;3.14;71.34;97863.50;29395;203;63009;-58
2023/02/16 01:13:25;;;;;;;0.60;0.60;;;;;;;3.12;71.03;97868.28;29395;360;63005;-57
2023/02/16 01:13:57;;;;;;;0.60;0.60;;;;;;;3.09;71.25;97861.50;29395;200;63020;-57
2023/02/16 01:14:31;;;;;;;1.60;1.60;;;;;;;3.09;71.12;97861.50;29395;214;63019;-58
2023/02/16 01:15:02;;;;;;;0.60;0.60;;;;;;;3.10;71.37;97868.50;29394;209;64013;-57
2023/02/16 01:15:35;;;;;;;0.60;0.60;;;;;;;3.10;71.45;97871.19;29395;231;63005;-57
2023/02/16 01:16:22;;;;;;;0.55;0.55;;;;;;;3.10;71.63;97867.69;29395;211;63009;-57
2023/02/16 01:16:53;;;;;;;0.60;0.60;;;;;;;3.11;71.52;97869.31;29395;226;63017;-58
2023/02/16 01:17:24;;;;;;;0.60;0.60;;;;;;;3.11;71.90;97870.16;29395;266;63009;-57
2023/02/16 01:17:55;;;;;;;0.60;0.60;;;;;;;3.12;71.70;97877.13;29395;220;63004;-57
2023/02/16 01:18:27;;;;;;;0.55;0.55;;;;;;;3.13;71.77;97868.03;29394;222;64013;-57
2023/02/16 01:18:58;;;;;;;0.60;0.60;;;;;;;3.16;71.96;97867.59;29394;220;64008;-68
2023/02/16 01:19:29;;;;;;;0.60;0.60;;;;;;;3.17;71.76;97869.25;29395;339;63027;-57
2023/02/16 01:20:00;;;;;;;0.60;0.60;;;;;;;3.19;71.45;97872.53;29395;227;63018;-57
2023/02/16 01:20:34;;;;;;;0.60;0.60;;;;;;;3.19;71.67;97874.37;29395;231;63005;-57
2023/02/16 01:21:06;;;;;;;0.60;0.60;;;;;;;3.19;71.46;97877.88;29395;218;63005;-57
2023/02/16 01:21:38;;;;;;;0.60;0.60;;;;;;;3.20;71.43;97868.78;29395;254;63009;-57
2023/02/16 01:22:10;;;;;;;0.60;0.60;;;;;;;3.20;71.57;97871.47;29395;215;63005;-57
2023/02/16 01:22:42;;;;;;;0.60;0.60;;;;;;;3.23;71.29;97872.91;29395;217;63009;-71
2023/02/16 01:23:13;;;;;;;0.60;0.60;;;;;;;3.24;70.91;97866.50;29395;203;63005;-57
2023/02/16 01:23:44;;;;;;;0.60;0.60;;;;;;;3.26;71.27;97862.53;29395;212;63009;-57
2023/02/16 01:24:16;;;;;;;0.60;0.60;;;;;;;3.27;71.10;97864.19;29394;228;64009;-58
2023/02/16 01:24:47;;;;;;;0.60;0.60;;;;;;;3.29;70.99;97867.47;29395;220;63009;-57
2023/02/16 01:25:22;;;;;;;0.60;0.60;;;;;;;3.31;70.71;97864.56;29395;214;63004;-57
2023/02/16 01:25:55;;;;;;;0.60;0.60;;;;;;;3.31;71.01;97867.25;29395;212;63009;-58
2023/02/16 01:26:28;;;;;;;0.60;0.60;;;;;;;3.31;71.07;97868.06;29395;196;63004;-58
2023/02/16 01:26:59;;;;;;;0.60;0.60;;;;;;;3.32;70.93;97872.41;29395;211;63009;-57
2023/02/16 01:27:31;;;;;;;0.60;0.60;;;;;;;3.31;70.64;97865.38;29395;262;63005;-58
2023/02/16 01:28:16;;;;;;;0.50;0.50;;;;;;;3.31;71.05;97870.75;29395;232;63009;-57
2023/02/16 01:28:47;;;;;;;0.60;0.60;;;;;;;3.32;71.08;97864.34;29394;218;64009;-57
2023/02/16 01:29:21;;;;;;;0.60;0.60;;;;;;;3.32;70.88;97867.03;29395;294;63009;-58
2023/02/16 01:29:52;;;;;;;0.60;0.60;;;;;;;3.33;70.73;97868.66;29395;208;63005;-58
2023/02/16 01:30:27;;;;;;;0.60;0.60;;;;;;;3.34;71.16;97858.75;29395;239;63009;-57
2023/02/16 01:30:59;;;;;;;0.60;0.60;;;;;;;3.32;70.89;97858.97;29395;233;63005;-57
2023/02/16 01:31:31;;;;;;;0.60;0.60;;;;;;;3.34;71.08;97864.12;29395;196;63009;-58
2023/02/16 01:32:02;;;;;;;0.60;0.60;;;;;;;3.34;70.89;97864.94;29395;208;63008;-57
2023/02/16 01:32:35;;;;;;;0.80;0.80;;;;;;;3.35;70.90;97871.12;29395;290;63009;-58
2023/02/16 01:33:07;;;;;;;0.60;0.60;;;;;;;3.35;70.89;97855.84;29395;263;63009;-56
2023/02/16 01:33:40;;;;;;;0.50;0.50;;;;;;;3.35;70.92;97866.59;29395;237;63009;-57
2023/02/16 01:34:12;;;;;;;0.60;0.60;;;;;;;3.36;70.91;97857.50;29394;226;64008;-58
2023/02/16 01:34:43;;;;;;;0.55;0.55;;;;;;;3.37;70.60;97867.19;29395;236;63009;-57
2023/02/16 01:35:18;;;;;;;0.60;0.60;;;;;;;3.37;70.45;97853.78;29395;282;63005;-58
2023/02/16 01:35:49;;;;;;;0.60;0.60;;;;;;;3.39;70.79;97858.09;29395;207;63009;-57
2023/02/16 01:36:52;;;;;;;0.60;0.60;;;;;;;3.37;70.44;97853.78;29395;203;63005;-57
2023/02/16 01:37:23;;;;;;;;;;;;;;;3.39;70.62;97852.72;29996;982;6004;-57
2023/02/16 01:37:54;;;;;;;0.60;0.60;;;;;;;3.39;70.56;97855.41;29422;333;63009;-57
2023/02/16 01:38:27;;;;;;;0.50;0.50;;;;;;;3.38;70.93;97854.59;29395;199;63005;-58
2023/02/16 01:39:00;;;;;;;0.60;0.60;;;;;;;3.39;70.83;97850.03;29394;197;64013;-57
2023/02/16 01:39:31;;;;;;;0.60;0.60;;;;;;;3.39;70.77;97858.09;29395;240;63004;-58
2023/02/16 01:40:05;;;;;;;0.60;0.60;;;;;;;3.40;70.62;97857.06;29395;259;63009;-58
2023/02/16 01:40:43;;;;;;;0.60;0.60;;;;;;;3.39;70.78;97855.41;29395;216;63008;-57
2023/02/16 01:41:36;;;;;;;0.60;0.60;;;;;;;3.39;70.78;97850.03;29395;222;63008;-57
2023/02/16 01:42:55;;;;;;;0.60;0.60;;;;;;;3.39;70.79;97858.09;29395;300;63005;-57
2023/02/16 01:43:44;;;;;;;0.60;0.60;;;;;;;3.39;70.59;97855.41;29395;203;63009;-58
2023/02/16 01:44:21;;;;;;;0.60;0.60;;;;;;;3.39;70.67;97850.03;29394;237;64009;-58
2023/02/16 01:44:59;;;;;;;0.60;0.60;;;;;;;3.37;70.90;97853.78;29395;225;63009;-58
2023/02/16 01:45:34;;;;;;;0.60;0.60;;;;;;;3.36;70.43;97854.81;29395;237;63004;-57
2023/02/16 01:46:13;;;;;;;0.60;0.60;;;;;;;3.36;70.46;97845.94;29394;245;64009;-58
2023/02/16 01:46:51;;;;;;;0.60;0.60;;;;;;;3.37;70.49;97847.59;29395;196;63004;-57
2023/02/16 01:47:46;;;;;;;0.60;0.60;;;;;;;3.36;70.55;97848.62;29395;208;63009;-57
2023/02/16 01:48:25;;;;;;;0.60;0.60;;;;;;;3.36;70.60;97846.75;29395;215;63004;-57
2023/02/16 01:48:57;;;;;;;0.60;0.60;;;;;;;3.35;70.72;97845.13;29395;196;63008;-58
2023/02/16 01:49:31;;;;;;;0.60;0.60;;;;;;;3.36;70.48;97840.59;29394;221;64008;-57
2023/02/16 01:50:23;;;;;;;0.60;0.60;;;;;;;3.36;70.44;97851.31;29395;219;63009;-57
2023/02/16 01:51:20;;;;;;;0.60;0.60;;;;;;;3.36;70.73;97849.44;29395;221;63005;-57
2023/02/16 01:52:18;;;;;;;0.57;0.57;;;;;;;3.36;70.18;97849.44;29395;196;63009;-57
2023/02/16 01:52:59;;;;;;;0.60;0.60;;;;;;;3.36;70.29;97849.44;29395;252;63005;-57
2023/02/16 01:53:45;;;;;;;0.60;0.60;;;;;;;3.35;70.20;97850.50;29416;245;64009;-57
2023/02/16 01:54:38;;;;;;;0.60;0.60;;;;;;;3.36;70.29;97852.13;29395;253;63004;-58
2023/02/16 01:55:28;;;;;;;0.60;0.60;;;;;;;3.35;70.45;97844.31;29394;234;64013;-57
2023/02/16 01:56:05;;;;;;;0.60;0.60;;;;;;;3.36;70.34;97852.13;29395;238;63004;-57
2023/02/16 01:56:44;;;;;;;0.60;0.60;;;;;;;3.35;70.35;97850.50;29395;197;63005;-57
2023/02/16 01:58:04;;;;;;;0.60;0.60;;;;;;;3.35;70.24;97847.81;29395;214;63014;-57
2023/02/16 01:58:59;;;;;;;0.60;0.60;;;;;;;3.37;70.22;97840.34;29394;243;64013;-59
2023/02/16 02:00:03;;;;;;;0.70;0.70;;;;;;;3.45;69.55;97833.88;29395;196;63005;-59
2023/02/16 02:01:30;;;;;;;0.60;0.60;;;;;;;3.52;69.53;97828.41;29395;207;63009;-57
2023/02/16 02:02:04;;;;;;;0.60;0.60;;;;;;;3.55;68.83;97828.78;29395;198;63010;-57
2023/02/16 02:02:40;;;;;;;0.60;0.60;;;;;;;3.55;68.82;97817.22;29395;248;63009;-57
2023/02/16 02:05:36;;;;;;;0.60;0.60;;;;;;;3.45;68.40;97816.97;29395;296;63005;-57
2023/02/16 02:06:13;;;;;;;0.60;0.60;;;;;;;3.40;68.96;97814.94;29417;199;63009;-58
2023/02/16 02:06:46;;;;;;;0.60;0.60;;;;;;;3.38;69.27;97814.34;29395;221;63005;-58
2023/02/16 02:07:27;;;;;;;0.55;0.55;;;;;;;3.34;69.26;97816.66;29395;216;63009;-57
2023/02/16 02:09:05;;;;;;;0.60;0.60;;;;;;;3.25;69.45;97815.31;29395;204;63005;-57
2023/02/16 02:09:50;;;;;;;0.60;0.60;;;;;;;3.20;69.97;97815.16;29394;231;64013;-59
2023/02/16 02:10:54;;;;;;;0.60;0.60;;;;;;;3.17;69.65;97826.31;29395;267;63004;-58
2023/02/16 02:11:47;;;;;;;0.60;0.60;;;;;;;3.12;69.73;97828.06;29395;227;63008;-58
2023/02/16 02:12:46;;;;;;;0.60;0.60;;;;;;;3.08;70.39;97826.88;29395;274;63005;-57
2023/02/16 02:13:50;;;;;;;0.60;0.60;;;;;;;2.98;70.42;97827.38;29373;205;63009;-57
2023/02/16 02:14:27;;;;;;;0.60;0.60;;;;;;;2.98;70.44;97828.19;29373;236;63005;-57
2023/02/16 02:15:10;;;;;;;0.60;0.60;;;;;;;2.98;70.58;97832.72;29371;371;64013;-57
2023/02/16 02:15:41;;;;;;;0.60;0.60;;;;;;;2.97;71.07;97825.72;29373;216;63004;-58
2023/02/16 02:16:18;;;;;;;0.60;0.60;;;;;;;2.95;70.72;97822.44;29373;209;63009;-57
2023/02/16 02:17:00;;;;;;;0.60;0.60;;;;;;;2.95;71.17;97812.53;29395;199;63004;-57
2023/02/16 02:17:32;;;;;;;0.60;0.60;;;;;;;2.95;71.20;97815.22;29372;226;63009;-59
2023/02/16 02:18:03;;;;;;;0.90;0.90;;;;;;;3.02;69.90;97804.44;29373;242;63004;-57
2023/02/16 02:18:35;;;;;;;0.60;0.60;;;;;;;3.07;69.84;97804.59;29395;205;63008;-58
2023/02/16 02:19:06;;;;;;;0.60;0.60;;;;;;;3.12;70.38;97817.34;29395;317;63005;-58
2023/02/16 02:19:53;;;;;;;0.60;0.60;;;;;;;3.17;70.26;97812.09;29373;291;63009;-57
2023/02/16 02:24:01;;;;;;;0.60;0.60;;;;;;;3.59;67.78;97796.94;29395;202;63004;-57
2023/02/16 02:25:27;;;;;;;0.60;0.60;;;;;;;3.64;68.16;97805.16;29395;249;63004;-56
2023/02/16 02:26:47;;;;;;;0.60;0.60;;;;;;;3.72;68.19;97801.34;29394;210;64013;-57
2023/02/16 02:27:33;;;;;;;0.60;0.60;;;;;;;3.72;67.68;97801.34;29373;309;63005;-57
2023/02/16 02:28:48;;;;;;;0.60;0.60;;;;;;;3.70;68.04;97801.56;29371;203;64014;-57
2023/02/16 02:29:57;;;;;;;0.60;0.60;;;;;;;3.65;67.83;97802.25;29373;218;63005;-57
2023/02/16 02:30:59;;;;;;;0.50;0.50;;;;;;;3.60;67.40;97798.59;29394;231;64013;-57
2023/02/16 02:32:11;;;;;;;0.68;0.68;;;;;;;3.56;67.79;97808.13;29417;210;63004;-57
2023/02/16 02:33:26;;;;;;;0.60;0.60;;;;;;;3.55;68.39;97817.22;29395;199;63015;-57
2023/02/16 02:34:21;;;;;;;0.60;0.60;;;;;;;3.52;68.37;97806.94;29395;339;63000;-57
2023/02/16 02:35:42;;;;;;;0.60;0.60;;;;;;;3.50;68.90;97820.59;29373;224;63015;-57
2023/02/16 02:36:39;;;;;;;0.60;0.60;;;;;;;3.46;68.80;97823.97;29394;290;64013;-57
2023/02/16 02:37:25;;;;;;;0.60;0.60;;;;;;;3.44;69.02;97820.69;29395;248;63005;-57
2023/02/16 02:38:27;;;;;;;0.60;0.60;;;;;;;3.39;69.04;97821.34;29373;288;63009;-57
2023/02/16 02:39:27;;;;;;;0.60;0.60;;;;;;;3.37;69.58;97826.13;29417;214;63004;-58
2023/02/16 02:40:35;;;;;;;0.55;0.55;;;;;;;3.34;69.79;97819.34;29394;283;64008;-69
2023/02/16 02:42:46;;;;;;;0.60;0.60;;;;;;;3.31;69.54;97822.47;29395;230;63005;-60
2023/02/16 02:43:59;;;;;;;0.60;0.60;;;;;;;3.27;69.14;97815.91;29373;324;63009;-69
2023/02/16 02:44:44;;;;;;;0.60;0.60;;;;;;;3.23;69.15;97809.34;29395;235;63005;-69
2023/02/16 02:45:22;;;;;;;0.60;0.60;;;;;;;3.21;69.20;97816.78;29394;335;64013;-56
2023/02/16 02:46:15;;;;;;;0.60;0.60;;;;;;;3.18;69.07;97821.78;29373;305;63004;-57
2023/02/16 02:46:48;;;;;;;0.60;0.60;;;;;;;3.16;69.83;97818.50;29371;218;64001;-57
2023/02/16 02:47:20;;;;;;;0.60;0.60;;;;;;;3.16;69.84;97815.81;29373;288;63016;-57
2023/02/16 02:47:51;;;;;;;0.60;0.60;;;;;;;3.15;70.13;97823.03;29395;291;63008;-57
2023/02/16 02:48:23;;;;;;;0.60;0.60;;;;;;;3.15;69.94;97823.03;29373;237;63005;-57
2023/02/16 02:48:54;;;;;;;0.60;0.60;;;;;;;3.14;70.23;97816.03;29395;240;63009;-57
2023/02/16 02:49:28;;;;;;;0.60;0.60;;;;;;;3.14;70.17;97817.91;29395;247;63017;-58
2023/02/16 02:49:59;;;;;;;0.60;0.60;;;;;;;3.12;70.33;97811.97;29395;223;63009;-57
2023/02/16 02:51:28;;;;;;;0.60;0.60;;;;;;;3.10;70.08;97814.06;29395;203;63005;-58
2023/02/16 02:52:00;;;;;;;0.60;0.60;;;;;;;3.04;69.94;97810.41;29371;273;64013;-57
2023/02/16 02:52:32;;;;;;;0.60;0.60;;;;;;;3.01;70.08;97808.97;29373;315;63005;-68
2023/02/16 02:53:11;;;;;;;0.60;0.60;;;;;;;2.99;70.28;97812.91;29373;252;63009;-57
2023/02/16 03:00:55;;;;;;;0.70;0.70;;;;;;;2.79;71.42;97823.00;29395;247;63009;-57
2023/02/16 03:01:27;;;;;;;0.60;0.60;;;;;;;2.78;71.26;97816.00;29395;320;63012;-56
2023/02/16 03:02:01;;;;;;;0.60;0.60;;;;;;;2.78;71.00;97816.00;29373;321;63009;-57
2023/02/16 03:02:34;;;;;;;0.60;0.60;;;;;;;2.79;71.13;97817.62;29373;323;63004;-58
2023/02/16 03:03:31;;;;;;;0.60;0.60;;;;;;;2.79;71.33;97809.59;29371;203;64013;-58
2023/02/16 03:04:06;;;;;;;0.60;0.60;;;;;;;2.80;70.88;97811.25;29373;235;63005;-57
2023/02/16 03:04:39;;;;;;;0.60;0.60;;;;;;;2.81;70.85;97807.53;29373;246;63009;-58
2023/02/16 03:05:14;;;;;;;0.60;0.60;;;;;;;2.86;71.33;97810.38;29373;197;63005;-57
2023/02/16 03:05:55;;;;;;;0.60;0.60;;;;;;;2.87;71.06;97809.31;29373;257;63009;-58
2023/02/16 03:06:33;;;;;;;0.50;0.50;;;;;;;2.89;70.92;97812.59;29373;255;63005;-58
2023/02/16 03:07:08;;;;;;;0.60;0.60;;;;;;;2.94;70.55;97808.22;29373;208;63009;-57
2023/02/16 03:07:47;;;;;;;0.70;0.70;;;;;;;2.93;70.37;97806.59;29394;222;64009;-57
2023/02/16 03:08:24;;;;;;;0.60;0.60;;;;;;;2.92;70.59;97807.63;29373;208;63009;-57
2023/02/16 03:09:10;;;;;;;0.60;0.60;;;;;;;2.92;70.42;97806.81;29395;251;63004;-58
2023/02/16 03:09:42;;;;;;;0.70;0.70;;;;;;;2.93;70.61;97816.47;29371;218;64013;-57
2023/02/16 03:13:00;;;;;;;0.52;0.52;;;;;;;2.93;70.45;97805.75;29395;212;63009;-57
2023/02/16 03:13:41;;;;;;;0.60;0.60;;;;;;;2.97;70.26;97805.09;29373;265;63005;-58
2023/02/16 03:15:21;;;;;;;0.60;0.60;;;;;;;3.12;70.57;97798.56;88178;196;64005;-57
2023/02/16 03:15:56;;;;;;;0.60;0.60;;;;;;;3.13;69.99;97797.50;29394;228;64009;-56
2023/02/16 03:16:44;;;;;;;0.60;0.60;;;;;;;3.14;70.12;97791.91;29373;238;63005;-57
2023/02/16 03:29:18;;;;;;;0.60;0.60;;;;;;;3.30;69.70;97795.88;29395;241;63004;-58
2023/02/16 03:29:51;;;;;;;0.60;0.60;;;;;;;3.30;69.88;97796.69;29395;208;63008;-58
2023/02/16 03:30:25;;;;;;;0.60;0.60;;;;;;;3.31;69.55;97801.00;29395;230;63015;-57
2023/02/16 03:30:57;;;;;;;0.60;0.60;;;;;;;3.32;69.69;97797.28;29395;211;63009;-57
2023/02/16 03:31:39;;;;;;;0.60;0.60;;;;;;;3.32;69.85;97794.59;29394;218;64009;-57
2023/02/16 03:32:09;;;;;;;;;;;;;;;3.33;69.58;97801.59;29996;982;6005;-58
2023/02/16 03:32:42;;;;;;;0.70;0.70;;;;;;;3.32;69.58;97797.28;29422;231;63009;-57
2023/02/16 03:33:14;;;;;;;0.60;0.60;;;;;;;3.34;69.51;97799.75;29395;209;63011;-57
2023/02/16 03:33:53;;;;;;;0.60;0.60;;;;;;;3.34;69.75;97800.56;29395;219;63016;-69
2023/02/16 03:34:25;;;;;;;0.60;0.60;;;;;;;3.36;69.85;97794.97;29395;213;63004;-57
2023/02/16 03:34:57;;;;;;;0.60;0.60;;;;;;;3.38;69.68;97795.56;29395;232;63009;-57
2023/02/16 03:35:28;;;;;;;0.60;0.60;;;;;;;3.41;69.97;97791.63;29395;229;63004;-57
2023/02/16 03:36:01;;;;;;;0.50;0.50;;;;;;;3.41;69.61;97794.31;29395;234;63023;-56
2023/02/16 03:36:39;;;;;;;0.60;0.60;;;;;;;3.43;69.60;97792.22;29394;229;64008;-57
2023/02/16 03:37:12;;;;;;;0.50;0.50;;;;;;;3.43;69.16;97797.59;29395;202;63008;-58
2023/02/16 03:37:44;;;;;;;0.60;0.60;;;;;;;3.44;69.20;97789.31;29395;202;63005;-58
2023/02/16 03:38:16;;;;;;;0.60;0.60;;;;;;;3.48;69.08;97795.03;29395;229;63009;-57
2023/02/16 03:38:47;;;;;;;0.50;0.50;;;;;;;3.51;69.47;97789.22;29395;254;63005;-57
2023/02/16 03:39:19;;;;;;;0.60;0.60;;;;;;;3.53;69.47;97800.53;29395;200;63016;-57
2023/02/16 03:40:44;;;;;;;0.60;0.60;;;;;;;3.58;69.25;97790.75;29395;226;63009;-57
2023/02/16 03:41:15;;;;;;;0.60;0.60;;;;;;;3.60;69.42;97795.91;29395;218;63005;-57
2023/02/16 03:41:50;;;;;;;0.60;0.60;;;;;;;3.59;68.87;97784.34;29394;222;64013;-58
2023/02/16 03:42:23;;;;;;;0.60;0.60;;;;;;;3.60;69.12;97793.22;29395;260;63004;-59
2023/02/16 03:43:05;;;;;;;0.60;0.60;;;;;;;3.63;68.89;97798.13;29373;235;63009;-57
2023/02/16 03:43:36;;;;;;;0.60;0.60;;;;;;;3.64;68.85;97794.41;29395;196;63008;-57
2023/02/16 03:44:08;;;;;;;0.60;0.60;;;;;;;3.65;68.93;97790.69;29395;223;63016;-57
2023/02/16 03:44:43;;;;;;;0.60;0.60;;;;;;;3.66;69.33;97795.00;29395;336;63004;-57
2023/02/16 03:45:14;;;;;;;0.60;0.60;;;;;;;3.65;69.21;97801.41;29395;231;63009;-57
2023/02/16 03:45:47;;;;;;;0.50;0.50;;;;;;;3.65;69.36;97791.50;29395;226;63005;-57
2023/02/16 03:46:19;;;;;;;0.60;0.60;;;;;;;3.65;69.28;97796.06;29395;204;63009;-58